sensor_id;sensor_type;location;lat;lon;timestamp;pressure;altitude;pressure_sealevel;temperature;humidity
6096;BME280;25081;42.698;23.298;2023-04-26T00:01:40;94347.41;;;9.27;92.96
6096;BME280;25081;42.698;23.298;2023-04-26T00:03:51;94345.39;;;9.20;93.18
6096;BME280;25081;42.698;23.298;2023-04-26T00:06:02;94347.69;;;9.16;93.49
6096;BME280;25081;42.698;23.298;2023-04-26T00:08:13;94336.03;;;9.17;93.83
6096;BME280;25081;42.698;23.298;2023-04-26T00:10:24;94334.58;;;9.12;93.79
6096;BME280;25081;42.698;23.298;2023-04-26T00:12:34;94332.77;;;9.15;93.95
6096;BME280;25081;42.698;23.298;2023-04-26T00:14:45;94325.45;;;9.20;94.20
6096;BME280;25081;42.698;23.298;2023-04-26T00:16:56;94328.63;;;9.20;94.52
6096;BME280;25081;42.698;23.298;2023-04-26T00:19:06;94324.98;;;9.11;94.41
6096;BME280;25081;42.698;23.298;2023-04-26T00:21:17;94312.67;;;8.96;94.87
6096;BME280;25081;42.698;23.298;2023-04-26T00:23:27;94312.62;;;8.94;95.10
6096;BME280;25081;42.698;23.298;2023-04-26T00:25:37;94314.19;;;8.92;95.21
6096;BME280;25081;42.698;23.298;2023-04-26T00:27:48;94320.07;;;8.94;96.12
6096;BME280;25081;42.698;23.298;2023-04-26T00:29:59;94313.71;;;8.95;95.83
6096;BME280;25081;42.698;23.298;2023-04-26T00:32:09;94312.33;;;8.93;95.70
6096;BME280;25081;42.698;23.298;2023-04-26T00:34:20;94315.38;;;8.87;95.36
6096;BME280;25081;42.698;23.298;2023-04-26T00:36:30;94307.59;;;8.83;95.68
6096;BME280;25081;42.698;23.298;2023-04-26T00:38:41;94302.52;;;8.81;95.59
6096;BME280;25081;42.698;23.298;2023-04-26T00:40:52;94304.31;;;8.78;95.73
6096;BME280;25081;42.698;23.298;2023-04-26T00:43:02;94306.84;;;8.73;95.49
6096;BME280;25081;42.698;23.298;2023-04-26T00:45:13;94305.69;;;8.69;95.62
6096;BME280;25081;42.698;23.298;2023-04-26T00:47:24;94306.22;;;8.69;96.03
6096;BME280;25081;42.698;23.298;2023-04-26T00:49:34;94305.84;;;8.65;96.09
6096;BME280;25081;42.698;23.298;2023-04-26T00:51:44;94302.95;;;8.55;95.55
6096;BME280;25081;42.698;23.298;2023-04-26T00:53:55;94311.16;;;8.53;95.58
6096;BME280;25081;42.698;23.298;2023-04-26T00:56:07;94310.05;;;8.52;96.25
6096;BME280;25081;42.698;23.298;2023-04-26T00:58:17;94311.20;;;8.56;96.09
6096;BME280;25081;42.698;23.298;2023-04-26T01:00:28;94309.25;;;8.51;95.87
6096;BME280;25081;42.698;23.298;2023-04-26T01:02:38;94307.69;;;8.53;96.46
6096;BME280;25081;42.698;23.298;2023-04-26T01:04:49;94303.89;;;8.60;96.81
6096;BME280;25081;42.698;23.298;2023-04-26T01:07:00;94308.55;;;8.56;97.03
6096;BME280;25081;42.698;23.298;2023-04-26T01:09:11;94314.48;;;8.49;97.27
6096;BME280;25081;42.698;23.298;2023-04-26T01:11:22;94320.25;;;8.46;96.81
6096;BME280;25081;42.698;23.298;2023-04-26T01:13:33;94322.05;;;8.43;96.83
6096;BME280;25081;42.698;23.298;2023-04-26T01:15:45;94320.87;;;8.39;97.11
6096;BME280;25081;42.698;23.298;2023-04-26T01:17:55;94320.58;;;8.38;97.99
6096;BME280;25081;42.698;23.298;2023-04-26T01:20:08;94321.47;;;8.41;98.18
6096;BME280;25081;42.698;23.298;2023-04-26T01:22:19;94318.68;;;8.36;98.42
6096;BME280;25081;42.698;23.298;2023-04-26T01:24:29;94308.78;;;8.33;98.18
6096;BME280;25081;42.698;23.298;2023-04-26T01:26:40;94301.48;;;8.29;97.54
6096;BME280;25081;42.698;23.298;2023-04-26T01:28:53;94302.17;;;8.24;97.87
6096;BME280;25081;42.698;23.298;2023-04-26T01:31:04;94296.34;;;8.25;98.21
6096;BME280;25081;42.698;23.298;2023-04-26T01:33:14;94300.95;;;8.29;98.46
6096;BME280;25081;42.698;23.298;2023-04-26T01:35:25;94306.87;;;8.31;97.92
6096;BME280;25081;42.698;23.298;2023-04-26T01:37:35;94306.22;;;8.27;97.80
6096;BME280;25081;42.698;23.298;2023-04-26T01:39:46;94305.81;;;8.21;97.36
6096;BME280;25081;42.698;23.298;2023-04-26T01:41:58;94311.84;;;8.19;97.56
6096;BME280;25081;42.698;23.298;2023-04-26T01:44:08;94306.77;;;8.17;97.60
6096;BME280;25081;42.698;23.298;2023-04-26T01:46:19;94308.34;;;8.27;97.81
6096;BME280;25081;42.698;23.298;2023-04-26T01:48:29;94312.33;;;8.27;97.90
6096;BME280;25081;42.698;23.298;2023-04-26T01:50:40;94316.26;;;8.25;98.29
6096;BME280;25081;42.698;23.298;2023-04-26T01:52:51;94315.91;;;8.21;98.40
6096;BME280;25081;42.698;23.298;2023-04-26T01:55:01;94322.84;;;8.22;98.82
6096;BME280;25081;42.698;23.298;2023-04-26T01:57:11;94311.00;;;8.27;98.66
6096;BME280;25081;42.698;23.298;2023-04-26T01:59:22;94306.53;;;8.19;98.40
6096;BME280;25081;42.698;23.298;2023-04-26T02:01:33;94309.30;;;8.12;98.61
6096;BME280;25081;42.698;23.298;2023-04-26T02:03:43;94303.77;;;8.14;98.34
6096;BME280;25081;42.698;23.298;2023-04-26T02:05:54;94305.15;;;8.16;97.53
6096;BME280;25081;42.698;23.298;2023-04-26T02:08:05;94296.00;;;8.21;97.32
6096;BME280;25081;42.698;23.298;2023-04-26T02:10:16;94286.05;;;8.17;97.01
6096;BME280;25081;42.698;23.298;2023-04-26T02:12:26;94289.69;;;8.13;97.18
6096;BME280;25081;42.698;23.298;2023-04-26T02:14:37;94286.66;;;8.10;97.34
6096;BME280;25081;42.698;23.298;2023-04-26T02:16:47;94292.57;;;8.12;97.50
6096;BME280;25081;42.698;23.298;2023-04-26T02:18:58;94291.82;;;8.14;97.49
6096;BME280;25081;42.698;23.298;2023-04-26T02:21:09;94286.37;;;8.09;97.21
6096;BME280;25081;42.698;23.298;2023-04-26T02:23:19;94283.56;;;8.13;97.97
6096;BME280;25081;42.698;23.298;2023-04-26T02:25:29;94281.59;;;8.20;97.82
6096;BME280;25081;42.698;23.298;2023-04-26T02:27:40;94287.43;;;8.19;97.11
6096;BME280;25081;42.698;23.298;2023-04-26T02:29:51;94283.80;;;8.11;96.98
6096;BME280;25081;42.698;23.298;2023-04-26T02:32:01;94284.09;;;8.12;97.12
6096;BME280;25081;42.698;23.298;2023-04-26T02:34:12;94285.47;;;8.15;97.23
6096;BME280;25081;42.698;23.298;2023-04-26T02:36:23;94286.63;;;8.19;97.10
6096;BME280;25081;42.698;23.298;2023-04-26T02:38:34;94291.41;;;8.19;96.41
6096;BME280;25081;42.698;23.298;2023-04-26T02:40:44;94291.79;;;8.23;96.34
6096;BME280;25081;42.698;23.298;2023-04-26T02:42:55;94290.28;;;8.27;96.06
6096;BME280;25081;42.698;23.298;2023-04-26T02:45:08;94295.64;;;8.29;95.63
6096;BME280;25081;42.698;23.298;2023-04-26T02:47:18;94300.14;;;8.38;95.47
6096;BME280;25081;42.698;23.298;2023-04-26T02:49:29;94296.02;;;8.33;94.63
6096;BME280;25081;42.698;23.298;2023-04-26T02:51:40;94289.66;;;8.22;94.31
6096;BME280;25081;42.698;23.298;2023-04-26T02:53:50;94283.34;;;8.14;94.18
6096;BME280;25081;42.698;23.298;2023-04-26T02:56:01;94277.97;;;8.12;94.49
6096;BME280;25081;42.698;23.298;2023-04-26T02:58:11;94276.04;;;8.10;94.46
6096;BME280;25081;42.698;23.298;2023-04-26T03:00:23;94276.84;;;8.10;94.48
6096;BME280;25081;42.698;23.298;2023-04-26T03:02:33;94268.97;;;8.13;94.60
6096;BME280;25081;42.698;23.298;2023-04-26T03:04:44;94269.08;;;8.18;94.44
6096;BME280;25081;42.698;23.298;2023-04-26T03:06:55;94274.35;;;8.27;94.42
6096;BME280;25081;42.698;23.298;2023-04-26T03:09:05;94271.31;;;8.32;94.03
6096;BME280;25081;42.698;23.298;2023-04-26T03:11:16;94274.64;;;8.28;93.78
6096;BME280;25081;42.698;23.298;2023-04-26T03:13:27;94280.65;;;8.23;94.16
6096;BME280;25081;42.698;23.298;2023-04-26T03:15:37;94277.80;;;8.16;93.93
6096;BME280;25081;42.698;23.298;2023-04-26T03:17:48;94280.73;;;8.17;94.24
6096;BME280;25081;42.698;23.298;2023-04-26T03:19:58;94281.17;;;8.23;94.15
6096;BME280;25081;42.698;23.298;2023-04-26T03:22:09;94279.31;;;8.23;94.00
6096;BME280;25081;42.698;23.298;2023-04-26T03:24:20;94276.76;;;8.17;93.81
6096;BME280;25081;42.698;23.298;2023-04-26T03:26:31;94268.13;;;8.21;93.97
6096;BME280;25081;42.698;23.298;2023-04-26T03:28:41;94272.02;;;8.19;94.41
6096;BME280;25081;42.698;23.298;2023-04-26T03:30:52;94264.95;;;8.22;94.16
6096;BME280;25081;42.698;23.298;2023-04-26T03:33:02;94272.73;;;8.26;94.06
6096;BME280;25081;42.698;23.298;2023-04-26T03:35:13;94272.73;;;8.26;94.06
6096;BME280;25081;42.698;23.298;2023-04-26T03:37:24;94272.79;;;8.28;94.38
6096;BME280;25081;42.698;23.298;2023-04-26T03:39:35;94273.08;;;8.29;94.62
6096;BME280;25081;42.698;23.298;2023-04-26T03:41:45;94279.37;;;8.35;94.65
6096;BME280;25081;42.698;23.298;2023-04-26T03:43:56;94277.52;;;8.36;94.07
6096;BME280;25081;42.698;23.298;2023-04-26T03:46:06;94280.84;;;8.31;94.03
6096;BME280;25081;42.698;23.298;2023-04-26T03:48:17;94282.55;;;8.46;93.92
6096;BME280;25081;42.698;23.298;2023-04-26T03:50:27;94288.05;;;8.42;93.33
6096;BME280;25081;42.698;23.298;2023-04-26T03:52:38;94290.66;;;8.51;93.43
6096;BME280;25081;42.698;23.298;2023-04-26T03:54:48;94291.28;;;8.56;93.60
6096;BME280;25081;42.698;23.298;2023-04-26T03:56:58;94299.53;;;8.57;93.54
6096;BME280;25081;42.698;23.298;2023-04-26T03:59:09;94307.11;;;8.51;93.60
6096;BME280;25081;42.698;23.298;2023-04-26T04:01:19;94302.84;;;8.50;93.89
6096;BME280;25081;42.698;23.298;2023-04-26T04:03:30;94298.11;;;8.75;93.41
6096;BME280;25081;42.698;23.298;2023-04-26T04:05:41;94296.86;;;8.89;92.45
6096;BME280;25081;42.698;23.298;2023-04-26T04:07:51;94304.02;;;8.89;91.94
6096;BME280;25081;42.698;23.298;2023-04-26T04:10:02;94298.47;;;8.91;91.60
6096;BME280;25081;42.698;23.298;2023-04-26T04:12:12;94301.88;;;9.00;91.62
6096;BME280;25081;42.698;23.298;2023-04-26T04:14:23;94307.52;;;9.15;91.11
6096;BME280;25081;42.698;23.298;2023-04-26T04:16:33;94307.40;;;9.22;90.12
6096;BME280;25081;42.698;23.298;2023-04-26T04:18:44;94307.00;;;9.28;89.84
6096;BME280;25081;42.698;23.298;2023-04-26T04:20:54;94312.74;;;9.48;89.59
6096;BME280;25081;42.698;23.298;2023-04-26T04:23:05;94308.08;;;9.55;88.75
6096;BME280;25081;42.698;23.298;2023-04-26T04:25:16;94306.05;;;9.60;87.77
6096;BME280;25081;42.698;23.298;2023-04-26T04:27:26;94312.09;;;9.43;88.35
6096;BME280;25081;42.698;23.298;2023-04-26T04:29:37;94312.17;;;9.46;88.47
6096;BME280;25081;42.698;23.298;2023-04-26T04:31:47;94313.31;;;9.50;88.37
6096;BME280;25081;42.698;23.298;2023-04-26T04:33:58;94307.19;;;9.64;87.71
6096;BME280;25081;42.698;23.298;2023-04-26T04:36:09;94308.59;;;9.66;87.17
6096;BME280;25081;42.698;23.298;2023-04-26T04:38:19;94319.24;;;9.55;87.13
6096;BME280;25081;42.698;23.298;2023-04-26T04:40:30;94308.55;;;9.78;87.36
6096;BME280;25081;42.698;23.298;2023-04-26T04:42:43;94310.45;;;10.09;86.95
6096;BME280;25081;42.698;23.298;2023-04-26T04:44:54;94314.56;;;10.28;85.12
6096;BME280;25081;42.698;23.298;2023-04-26T04:47:04;94323.63;;;10.44;84.04
6096;BME280;25081;42.698;23.298;2023-04-26T04:49:15;94319.53;;;10.53;84.01
6096;BME280;25081;42.698;23.298;2023-04-26T04:51:29;94321.50;;;10.77;83.49
6096;BME280;25081;42.698;23.298;2023-04-26T04:53:40;94316.70;;;10.76;81.60
6096;BME280;25081;42.698;23.298;2023-04-26T04:55:50;94320.45;;;10.78;81.16
6096;BME280;25081;42.698;23.298;2023-04-26T04:58:01;94308.27;;;10.82;81.40
6096;BME280;25081;42.698;23.298;2023-04-26T05:00:14;94307.13;;;10.78;81.24
6096;BME280;25081;42.698;23.298;2023-04-26T05:02:24;94315.45;;;10.81;81.54
6096;BME280;25081;42.698;23.298;2023-04-26T05:04:35;94314.28;;;10.75;81.26
6096;BME280;25081;42.698;23.298;2023-04-26T05:06:45;94313.35;;;10.83;81.63
6096;BME280;25081;42.698;23.298;2023-04-26T05:08:57;94312.20;;;10.96;81.76
6096;BME280;25081;42.698;23.298;2023-04-26T05:11:07;94310.58;;;11.12;80.73
6096;BME280;25081;42.698;23.298;2023-04-26T05:13:18;94311.77;;;11.02;79.98
6096;BME280;25081;42.698;23.298;2023-04-26T05:15:28;94318.70;;;10.69;81.21
6096;BME280;25081;42.698;23.298;2023-04-26T05:17:40;94315.63;;;10.60;81.50
6096;BME280;25081;42.698;23.298;2023-04-26T05:19:49;94319.70;;;10.63;81.91
6096;BME280;25081;42.698;23.298;2023-04-26T05:22:00;94316.95;;;10.92;80.54
6096;BME280;25081;42.698;23.298;2023-04-26T05:24:10;94318.75;;;11.25;80.66
6096;BME280;25081;42.698;23.298;2023-04-26T05:26:21;94312.81;;;11.59;79.14
6096;BME280;25081;42.698;23.298;2023-04-26T05:28:31;94318.98;;;11.81;77.21
6096;BME280;25081;42.698;23.298;2023-04-26T05:30:42;94317.12;;;12.06;77.33
6096;BME280;25081;42.698;23.298;2023-04-26T05:32:52;94319.88;;;12.14;75.95
6096;BME280;25081;42.698;23.298;2023-04-26T05:35:03;94320.26;;;12.25;77.21
6096;BME280;25081;42.698;23.298;2023-04-26T05:37:14;94321.58;;;12.49;73.95
6096;BME280;25081;42.698;23.298;2023-04-26T05:39:24;94324.36;;;12.62;73.20
6096;BME280;25081;42.698;23.298;2023-04-26T05:41:35;94335.91;;;12.65;72.85
6096;BME280;25081;42.698;23.298;2023-04-26T05:43:46;94329.05;;;12.77;72.92
6096;BME280;25081;42.698;23.298;2023-04-26T05:45:56;94332.53;;;12.77;72.59
6096;BME280;25081;42.698;23.298;2023-04-26T05:48:07;94328.22;;;13.08;72.21
6096;BME280;25081;42.698;23.298;2023-04-26T05:50:18;94329.45;;;13.28;70.19
6096;BME280;25081;42.698;23.298;2023-04-26T05:52:28;94332.23;;;13.06;70.76
6096;BME280;25081;42.698;23.298;2023-04-26T05:54:39;94334.58;;;13.00;72.26
6096;BME280;25081;42.698;23.298;2023-04-26T05:56:49;94336.41;;;13.26;70.55
6096;BME280;25081;42.698;23.298;2023-04-26T05:59:00;94337.62;;;13.51;70.33
6096;BME280;25081;42.698;23.298;2023-04-26T06:01:10;94338.52;;;13.69;69.88
6096;BME280;25081;42.698;23.298;2023-04-26T06:03:21;94338.12;;;13.92;69.25
6096;BME280;25081;42.698;23.298;2023-04-26T06:05:32;94336.24;;;13.93;69.08
6096;BME280;25081;42.698;23.298;2023-04-26T06:07:42;94341.41;;;14.12;68.43
6096;BME280;25081;42.698;23.298;2023-04-26T06:09:53;94341.10;;;14.01;67.76
6096;BME280;25081;42.698;23.298;2023-04-26T06:12:04;94347.41;;;13.74;68.40
6096;BME280;25081;42.698;23.298;2023-04-26T06:14:15;94342.58;;;13.74;69.06
6096;BME280;25081;42.698;23.298;2023-04-26T06:16:25;94334.67;;;14.02;68.23
6096;BME280;25081;42.698;23.298;2023-04-26T06:18:36;94337.45;;;14.32;68.18
6096;BME280;25081;42.698;23.298;2023-04-26T06:20:47;94335.91;;;14.52;66.81
6096;BME280;25081;42.698;23.298;2023-04-26T06:22:57;94335.41;;;15.03;65.48
6096;BME280;25081;42.698;23.298;2023-04-26T06:25:09;94332.44;;;15.40;63.51
6096;BME280;25081;42.698;23.298;2023-04-26T06:27:20;94334.84;;;15.65;63.26
6096;BME280;25081;42.698;23.298;2023-04-26T06:29:32;94329.35;;;16.03;62.45
6096;BME280;25081;42.698;23.298;2023-04-26T06:31:42;94326.57;;;16.23;61.35
6096;BME280;25081;42.698;23.298;2023-04-26T06:33:53;94335.61;;;17.24;57.90
6096;BME280;25081;42.698;23.298;2023-04-26T06:36:04;94335.61;;;17.24;57.90
6096;BME280;25081;42.698;23.298;2023-04-26T06:38:15;94260.17;;;16.16;58.05
6096;BME280;25081;42.698;23.298;2023-04-26T06:40:25;94338.85;;;16.42;54.75
6096;BME280;25081;42.698;23.298;2023-04-26T06:42:36;94339.42;;;15.64;57.02
6096;BME280;25081;42.698;23.298;2023-04-26T06:44:47;94339.42;;;15.64;57.02
6096;BME280;25081;42.698;23.298;2023-04-26T06:47:01;94333.52;;;15.39;56.59
6096;BME280;25081;42.698;23.298;2023-04-26T06:49:11;94341.59;;;15.19;56.72
6096;BME280;25081;42.698;23.298;2023-04-26T06:51:22;94341.59;;;15.19;56.72
6096;BME280;25081;42.698;23.298;2023-04-26T06:53:32;94349.91;;;14.82;58.22
6096;BME280;25081;42.698;23.298;2023-04-26T06:55:43;94345.89;;;15.20;57.40
6096;BME280;25081;42.698;23.298;2023-04-26T06:57:53;94345.57;;;15.52;56.58
6096;BME280;25081;42.698;23.298;2023-04-26T07:00:05;94335.14;;;18.25;49.51
6096;BME280;25081;42.698;23.298;2023-04-26T07:02:16;94335.14;;;18.25;49.51
6096;BME280;25081;42.698;23.298;2023-04-26T07:04:27;94341.38;;;19.36;47.57
6096;BME280;25081;42.698;23.298;2023-04-26T07:06:37;94335.53;;;20.08;45.45
6096;BME280;25081;42.698;23.298;2023-04-26T07:08:48;94345.92;;;19.57;46.24
6096;BME280;25081;42.698;23.298;2023-04-26T07:10:58;94337.47;;;20.32;44.63
6096;BME280;25081;42.698;23.298;2023-04-26T07:13:08;94338.63;;;20.92;43.46
6096;BME280;25081;42.698;23.298;2023-04-26T07:15:19;94346.60;;;19.30;45.95
6096;BME280;25081;42.698;23.298;2023-04-26T07:17:30;94341.34;;;19.22;46.35
6096;BME280;25081;42.698;23.298;2023-04-26T07:19:40;94340.83;;;18.66;47.81
6096;BME280;25081;42.698;23.298;2023-04-26T07:21:51;94338.70;;;19.17;47.09
6096;BME280;25081;42.698;23.298;2023-04-26T07:24:01;94346.89;;;19.93;45.18
6096;BME280;25081;42.698;23.298;2023-04-26T07:26:12;94352.80;;;19.65;44.87
6096;BME280;25081;42.698;23.298;2023-04-26T07:28:23;94347.70;;;19.29;44.95
6096;BME280;25081;42.698;23.298;2023-04-26T07:30:33;94343.29;;;20.12;42.80
6096;BME280;25081;42.698;23.298;2023-04-26T07:32:44;94350.89;;;18.98;45.42
6096;BME280;25081;42.698;23.298;2023-04-26T07:34:54;94356.28;;;17.62;48.41
6096;BME280;25081;42.698;23.298;2023-04-26T07:37:05;94359.30;;;17.58;48.22
6096;BME280;25081;42.698;23.298;2023-04-26T07:39:15;94312.17;;;16.70;52.10
6096;BME280;25081;42.698;23.298;2023-04-26T07:41:26;94312.17;;;15.91;52.07
6096;BME280;25081;42.698;23.298;2023-04-26T07:43:36;94372.91;;;16.02;52.94
6096;BME280;25081;42.698;23.298;2023-04-26T07:45:47;94372.91;;;16.02;52.94
6096;BME280;25081;42.698;23.298;2023-04-26T07:47:57;94355.80;;;15.73;51.00
6096;BME280;25081;42.698;23.298;2023-04-26T07:50:10;94368.11;;;15.87;49.78
6096;BME280;25081;42.698;23.298;2023-04-26T07:52:21;94372.18;;;15.74;51.08
6096;BME280;25081;42.698;23.298;2023-04-26T07:54:31;94372.18;;;15.74;51.08
6096;BME280;25081;42.698;23.298;2023-04-26T07:56:42;94380.27;;;15.08;51.27
6096;BME280;25081;42.698;23.298;2023-04-26T07:58:52;94374.06;;;14.92;52.11
6096;BME280;25081;42.698;23.298;2023-04-26T08:01:03;94379.70;;;15.03;51.98
6096;BME280;25081;42.698;23.298;2023-04-26T08:03:15;94378.64;;;15.48;50.65
6096;BME280;25081;42.698;23.298;2023-04-26T08:05:26;94250.52;;;14.03;52.25
6096;BME280;25081;42.698;23.298;2023-04-26T08:07:37;94381.87;;;15.37;52.11
6096;BME280;25081;42.698;23.298;2023-04-26T08:09:47;94375.15;;;15.01;52.28
6096;BME280;25081;42.698;23.298;2023-04-26T08:11:58;94375.15;;;15.01;52.28
6096;BME280;25081;42.698;23.298;2023-04-26T08:14:08;94376.19;;;15.54;51.29
6096;BME280;25081;42.698;23.298;2023-04-26T08:16:19;94379.05;;;16.11;50.37
6096;BME280;25081;42.698;23.298;2023-04-26T08:18:29;94358.27;;;16.31;49.07
6096;BME280;25081;42.698;23.298;2023-04-26T08:20:40;94376.70;;;15.94;49.96
6096;BME280;25081;42.698;23.298;2023-04-26T08:22:54;94376.56;;;16.32;50.30
6096;BME280;25081;42.698;23.298;2023-04-26T08:25:08;94378.53;;;16.06;50.53
6096;BME280;25081;42.698;23.298;2023-04-26T08:27:18;94370.34;;;16.37;49.31
6096;BME280;25081;42.698;23.298;2023-04-26T08:29:28;94374.40;;;16.34;50.59
6096;BME280;25081;42.698;23.298;2023-04-26T08:31:39;94374.40;;;16.34;50.59
6096;BME280;25081;42.698;23.298;2023-04-26T08:33:50;94372.11;;;16.02;51.64
6096;BME280;25081;42.698;23.298;2023-04-26T08:36:00;94371.94;;;16.43;49.14
6096;BME280;25081;42.698;23.298;2023-04-26T08:38:11;94372.03;;;16.77;48.18
6096;BME280;25081;42.698;23.298;2023-04-26T08:40:23;94358.67;;;17.03;47.39
6096;BME280;25081;42.698;23.298;2023-04-26T08:42:34;94366.48;;;17.36;47.57
6096;BME280;25081;42.698;23.298;2023-04-26T08:44:44;94362.63;;;17.13;47.64
6096;BME280;25081;42.698;23.298;2023-04-26T08:46:59;94362.63;;;17.13;47.64
6096;BME280;25081;42.698;23.298;2023-04-26T08:49:11;94369.53;;;17.59;45.92
6096;BME280;25081;42.698;23.298;2023-04-26T08:51:20;94372.95;;;17.38;45.66
6096;BME280;25081;42.698;23.298;2023-04-26T08:53:30;94371.11;;;15.67;49.17
6096;BME280;25081;42.698;23.298;2023-04-26T08:55:41;94362.50;;;15.58;49.63
6096;BME280;25081;42.698;23.298;2023-04-26T08:57:52;94369.68;;;16.63;48.37
6096;BME280;25081;42.698;23.298;2023-04-26T09:00:03;94422.16;;;16.63;48.37
6096;BME280;25081;42.698;23.298;2023-04-26T09:02:16;94365.81;;;16.27;47.64
6096;BME280;25081;42.698;23.298;2023-04-26T09:04:26;94120.75;;;14.80;48.10
6096;BME280;25081;42.698;23.298;2023-04-26T09:06:36;94377.73;;;16.06;47.95
6096;BME280;25081;42.698;23.298;2023-04-26T09:08:47;94369.44;;;15.89;49.29
6096;BME280;25081;42.698;23.298;2023-04-26T09:10:57;94379.28;;;16.19;49.06
6096;BME280;25081;42.698;23.298;2023-04-26T09:13:08;94373.44;;;16.19;49.06
6096;BME280;25081;42.698;23.298;2023-04-26T09:15:19;94373.44;;;16.64;48.72
6096;BME280;25081;42.698;23.298;2023-04-26T09:17:30;94369.22;;;17.00;47.33
6096;BME280;25081;42.698;23.298;2023-04-26T09:19:40;94374.94;;;17.25;46.25
6096;BME280;25081;42.698;23.298;2023-04-26T09:21:50;94362.03;;;17.22;45.88
6096;BME280;25081;42.698;23.298;2023-04-26T09:24:01;94383.13;;;17.12;45.87
6096;BME280;25081;42.698;23.298;2023-04-26T09:26:19;94374.27;;;17.06;45.73
6096;BME280;25081;42.698;23.298;2023-04-26T09:28:29;94377.17;;;17.49;46.00
6096;BME280;25081;42.698;23.298;2023-04-26T09:30:40;94370.55;;;16.97;45.21
6096;BME280;25081;42.698;23.298;2023-04-26T09:32:52;94370.55;;;16.97;45.21
6096;BME280;25081;42.698;23.298;2023-04-26T09:35:01;94383.69;;;17.09;45.36
6096;BME280;25081;42.698;23.298;2023-04-26T09:37:13;94376.17;;;17.03;45.29
6096;BME280;25081;42.698;23.298;2023-04-26T09:39:33;94376.17;;;17.03;45.29
6096;BME280;25081;42.698;23.298;2023-04-26T09:41:44;94373.38;;;16.77;46.38
6096;BME280;25081;42.698;23.298;2023-04-26T09:43:54;94376.00;;;17.26;46.81
6096;BME280;25081;42.698;23.298;2023-04-26T09:46:05;94370.88;;;17.56;43.62
6096;BME280;25081;42.698;23.298;2023-04-26T09:48:17;94360.73;;;17.80;43.90
6096;BME280;25081;42.698;23.298;2023-04-26T09:50:29;94360.73;;;17.80;43.90
6096;BME280;25081;42.698;23.298;2023-04-26T09:52:45;94372.50;;;17.89;44.03
6096;BME280;25081;42.698;23.298;2023-04-26T09:54:55;94370.42;;;18.05;42.12
6096;BME280;25081;42.698;23.298;2023-04-26T09:57:06;94365.66;;;18.44;41.83
6096;BME280;25081;42.698;23.298;2023-04-26T09:59:16;94363.92;;;19.29;40.15
6096;BME280;25081;42.698;23.298;2023-04-26T10:01:27;94367.64;;;18.98;39.05
6096;BME280;25081;42.698;23.298;2023-04-26T10:03:38;94363.52;;;18.41;39.78
6096;BME280;25081;42.698;23.298;2023-04-26T10:05:49;94362.55;;;18.35;39.98
6096;BME280;25081;42.698;23.298;2023-04-26T10:07:59;94352.54;;;19.81;38.88
6096;BME280;25081;42.698;23.298;2023-04-26T10:10:11;94360.69;;;20.08;38.10
6096;BME280;25081;42.698;23.298;2023-04-26T10:12:22;94357.45;;;19.79;36.93
6096;BME280;25081;42.698;23.298;2023-04-26T10:14:33;94353.25;;;19.54;36.62
6096;BME280;25081;42.698;23.298;2023-04-26T10:16:43;94358.22;;;19.14;38.54
6096;BME280;25081;42.698;23.298;2023-04-26T10:18:54;94356.00;;;18.59;37.95
6096;BME280;25081;42.698;23.298;2023-04-26T10:21:06;94357.89;;;17.92;39.03
6096;BME280;25081;42.698;23.298;2023-04-26T10:23:18;94357.45;;;17.83;39.24
6096;BME280;25081;42.698;23.298;2023-04-26T10:25:39;94358.71;;;17.32;40.10
6096;BME280;25081;42.698;23.298;2023-04-26T10:27:51;94356.39;;;17.21;40.28
6096;BME280;25081;42.698;23.298;2023-04-26T10:30:10;94357.50;;;17.46;41.00
6096;BME280;25081;42.698;23.298;2023-04-26T10:32:20;94349.03;;;17.60;40.92
6096;BME280;25081;42.698;23.298;2023-04-26T10:34:31;94351.11;;;17.66;40.29
6096;BME280;25081;42.698;23.298;2023-04-26T10:37:07;94359.06;;;17.23;40.76
6096;BME280;25081;42.698;23.298;2023-04-26T10:39:20;94351.52;;;17.83;39.00
6096;BME280;25081;42.698;23.298;2023-04-26T10:41:35;94348.92;;;17.99;38.39
6096;BME280;25081;42.698;23.298;2023-04-26T10:43:45;94346.41;;;18.29;38.79
6096;BME280;25081;42.698;23.298;2023-04-26T10:45:56;94347.83;;;18.46;39.13
6096;BME280;25081;42.698;23.298;2023-04-26T10:48:16;94349.39;;;18.04;38.96
6096;BME280;25081;42.698;23.298;2023-04-26T10:50:27;94348.03;;;18.07;37.91
6096;BME280;25081;42.698;23.298;2023-04-26T10:52:38;94349.03;;;17.89;38.76
6096;BME280;25081;42.698;23.298;2023-04-26T10:54:57;94345.27;;;18.12;38.30
6096;BME280;25081;42.698;23.298;2023-04-26T10:57:08;94340.88;;;18.18;38.94
6096;BME280;25081;42.698;23.298;2023-04-26T10:59:20;94342.15;;;17.76;39.69
6096;BME280;25081;42.698;23.298;2023-04-26T11:01:31;94335.52;;;17.63;39.75
6096;BME280;25081;42.698;23.298;2023-04-26T11:03:42;94337.70;;;17.90;39.34
6096;BME280;25081;42.698;23.298;2023-04-26T11:05:53;94344.67;;;18.39;38.28
6096;BME280;25081;42.698;23.298;2023-04-26T11:08:07;94339.45;;;17.78;36.86
6096;BME280;25081;42.698;23.298;2023-04-26T11:10:23;94350.05;;;17.64;37.80
6096;BME280;25081;42.698;23.298;2023-04-26T11:12:34;94340.18;;;17.84;37.29
6096;BME280;25081;42.698;23.298;2023-04-26T11:14:44;94338.65;;;17.75;36.93
6096;BME280;25081;42.698;23.298;2023-04-26T11:16:55;94338.22;;;17.63;37.86
6096;BME280;25081;42.698;23.298;2023-04-26T11:19:06;94338.13;;;17.12;39.28
6096;BME280;25081;42.698;23.298;2023-04-26T11:21:18;94334.72;;;17.02;40.07
6096;BME280;25081;42.698;23.298;2023-04-26T11:23:28;94331.19;;;17.64;37.74
6096;BME280;25081;42.698;23.298;2023-04-26T11:25:38;94344.33;;;18.00;37.46
6096;BME280;25081;42.698;23.298;2023-04-26T11:27:49;94336.28;;;17.95;37.87
6096;BME280;25081;42.698;23.298;2023-04-26T11:30:02;94348.70;;;17.93;36.92
6096;BME280;25081;42.698;23.298;2023-04-26T11:32:13;94350.23;;;17.15;38.83
6096;BME280;25081;42.698;23.298;2023-04-26T11:34:30;94346.81;;;17.67;37.16
6096;BME280;25081;42.698;23.298;2023-04-26T11:36:36;94346.81;;;17.67;37.16
6096;BME280;25081;42.698;23.298;2023-04-26T11:38:46;94349.80;;;17.03;38.93